Time;durP1;ratioP1;P1;durP2;ratioP2;P2;SDS_P1;SDS_P2;PMS_P1;PMS_P2;Temp;Humidity;BMP_temperature;BMP_pressure;BME280_temperature;BME280_humidity;BME280_pressure;Samples;Min_cycle;Max_cycle;Signal;HPM_P1;HPM_P2
2022/03/30 00:01:56;;;;;;;9.33;8.83;;;;;;;7.95;62.34;92328.72;5049163;28;20224;-76
2022/03/30 00:04:22;;;;;;;9.97;9.27;;;;;;;8.00;62.54;92320.91;5049970;28;20233;-76
2022/03/30 00:06:48;;;;;;;11.03;10.33;;;;;;;7.91;62.89;92322.53;5049349;28;20186;-76
2022/03/30 00:09:13;;;;;;;9.87;9.37;;;;;;;7.76;63.36;92299.22;5048559;28;20352;-76
2022/03/30 00:11:39;;;;;;;9.77;9.27;;;;;;;7.94;63.01;92321.19;5050585;28;20190;-76
2022/03/30 00:14:05;;;;;;;9.83;9.43;;;;;;;7.95;61.99;92312.38;5047719;28;20229;-76
2022/03/30 00:16:30;;;;;;;9.93;9.43;;;;;;;7.81;62.99;92306.97;5047679;28;20198;-75
2022/03/30 00:18:56;;;;;;;10.33;9.73;;;;;;;8.00;62.38;92320.91;5048225;28;20306;-76
2022/03/30 00:21:22;;;;;;;10.53;9.93;;;;;;;8.09;62.09;92313.31;5050409;28;20212;-76
2022/03/30 00:23:47;;;;;;;10.57;10.07;;;;;;;8.14;61.74;92306.25;5048888;28;20253;-76
2022/03/30 00:26:13;;;;;;;9.33;8.90;;;;;;;8.09;62.44;92311.47;5047704;28;20208;-76
2022/03/30 00:28:38;;;;;;;10.80;10.30;;;;;;;8.03;62.31;92311.81;5048492;28;20244;-76
2022/03/30 00:31:04;;;;;;;10.57;9.97;;;;;;;7.99;62.17;92298.56;5048687;28;20210;-76
2022/03/30 00:33:29;;;;;;;9.67;9.23;;;;;;;8.04;62.33;92301.16;5047811;28;20236;-76
2022/03/30 00:35:55;;;;;;;9.57;9.17;;;;;;;8.11;61.42;92288.59;5050015;28;20194;-76
2022/03/30 00:38:20;;;;;;;12.00;11.30;;;;;;;8.23;61.27;92292.72;5048782;28;20190;-76
2022/03/30 00:40:46;;;;;;;10.93;10.03;;;;;;;8.06;62.64;92296.44;5049852;28;20212;-76
2022/03/30 00:43:12;;;;;;;11.33;10.47;;;;;;;8.05;61.65;92281.88;5049693;28;20205;-76
2022/03/30 00:45:38;;;;;;;11.40;10.57;;;;;;;8.19;61.96;92297.63;5045633;28;20202;-76
2022/03/30 00:48:04;;;;;;;10.63;9.93;;;;;;;8.02;62.20;92286.84;5040551;28;20216;-75
2022/03/30 00:50:30;;;;;;;9.37;8.97;;;;;;;8.16;61.89;92298.97;5047616;28;20256;-77
2022/03/30 00:52:59;;;;;;;9.73;9.13;;;;;;;7.80;63.16;92305.44;5049362;28;20183;-78
2022/03/30 00:55:25;;;;;;;10.07;9.23;;;;;;;7.45;64.24;92287.44;5046543;28;20221;-78
2022/03/30 00:57:52;;;;;;;10.30;9.60;;;;;;;7.62;64.36;92295.69;5048575;28;20185;-77
2022/03/30 01:00:19;;;;;;;10.23;9.47;;;;;;;7.56;64.52;92299.34;5046395;28;20218;-78
2022/03/30 01:02:46;;;;;;;10.13;9.63;;;;;;;7.59;64.02;92298.81;5049297;28;20190;-77
2022/03/30 01:05:13;;;;;;;9.93;9.47;;;;;;;7.48;65.31;92302.50;5046203;28;20218;-78
2022/03/30 01:07:39;;;;;;;10.17;9.67;;;;;;;7.44;65.18;92306.66;5047557;28;20205;-78
2022/03/30 01:10:06;;;;;;;10.83;10.10;;;;;;;7.45;65.14;92304.84;5047664;28;20225;-78
2022/03/30 01:12:34;;;;;;;11.37;10.57;;;;;;;7.58;64.50;92278.28;5046902;28;20186;-78
2022/03/30 01:15:00;;;;;;;10.83;10.13;;;;;;;7.43;65.14;92284.34;5048308;28;20225;-77
2022/03/30 01:17:26;;;;;;;9.93;9.53;;;;;;;7.50;65.18;92297.78;5048396;28;20233;-78
2022/03/30 01:19:52;;;;;;;9.43;9.03;;;;;;;7.59;65.07;92287.63;5047542;28;20253;-78
2022/03/30 01:22:17;;;;;;;9.50;9.00;;;;;;;7.48;65.35;92289.50;5049493;28;20193;-77
2022/03/30 01:24:43;;;;;;;11.33;10.73;;;;;;;7.67;64.72;92284.47;5048168;28;20236;-77
2022/03/30 01:27:08;;;;;;;8.53;8.03;;;;;;;7.53;65.09;92273.88;5049112;28;20258;-78
2022/03/30 01:32:25;;;;;;;9.70;9.20;;;;;;;7.27;66.59;92279.47;5048710;28;20205;-77
2022/03/30 01:34:51;;;;;;;10.03;9.53;;;;;;;7.18;66.70;92276.66;5047149;28;20241;-78
2022/03/30 01:37:17;;;;;;;10.40;9.60;;;;;;;7.28;66.41;92263.63;5049470;28;20186;-77
2022/03/30 01:39:42;;;;;;;10.07;9.43;;;;;;;7.20;66.52;92281.56;5046108;28;20241;-78
2022/03/30 01:42:09;;;;;;;10.03;9.43;;;;;;;7.26;66.45;92302.06;5049614;28;20198;-77
2022/03/30 01:44:36;;;;;;;9.23;8.87;;;;;;;7.38;65.99;92291.34;5048421;28;20217;-77
2022/03/30 01:47:02;;;;;;;9.53;8.73;;;;;;;7.19;66.40;92273.00;5048464;28;20202;-77
2022/03/30 01:49:27;;;;;;;9.97;9.50;;;;;;;7.26;66.49;92299.47;5047052;28;20232;-77
2022/03/30 01:51:56;;;;;;;9.73;9.23;;;;;;;7.27;66.65;92308.78;5048628;28;20170;-77
2022/03/30 01:54:23;;;;;;;9.67;9.13;;;;;;;7.38;66.21;92310.31;5048356;28;20281;-77
2022/03/30 01:56:50;;;;;;;10.53;10.03;;;;;;;7.18;67.27;92318.19;5048848;28;20177;-77
2022/03/30 01:59:17;;;;;;;8.73;8.40;;;;;;;7.25;67.09;92310.91;5050802;28;20257;-78
2022/03/30 02:01:42;;;;;;;11.93;11.03;;;;;;;7.10;67.00;92294.56;5052360;28;20216;-77
2022/03/30 02:04:09;;;;;;;10.30;9.50;;;;;;;7.04;67.38;92309.41;5051750;28;20225;-77
2022/03/30 02:06:36;;;;;;;10.73;10.13;;;;;;;7.01;67.67;92311.72;5050101;28;20211;-77
2022/03/30 02:09:03;;;;;;;10.93;10.07;;;;;;;6.96;67.87;92306.59;5052030;28;20222;-76
2022/03/30 02:11:29;;;;;;;10.03;9.57;;;;;;;7.00;68.00;92321.34;5049798;28;20281;-75
2022/03/30 02:13:55;;;;;;;8.93;8.33;;;;;;;6.84;68.58;92308.66;5050034;28;20263;-72
2022/03/30 02:16:21;;;;;;;11.10;10.20;;;;;;;6.89;68.08;92314.63;5052537;28;20197;-72
2022/03/30 02:18:46;;;;;;;10.40;9.67;;;;;;;6.98;67.90;92313.03;5050151;28;20301;-72
2022/03/30 02:21:12;;;;;;;10.80;10.20;;;;;;;6.83;68.73;92320.88;5051891;28;20218;-72
2022/03/30 02:23:39;;;;;;;9.90;9.43;;;;;;;6.80;68.89;92331.00;5051208;28;20222;-72
2022/03/30 02:26:05;;;;;;;9.53;9.03;;;;;;;6.87;68.83;92321.91;5051112;28;20194;-73
2022/03/30 02:28:31;;;;;;;10.73;9.63;;;;;;;6.82;68.71;92319.31;5050158;28;20771;-72
2022/03/30 02:30:56;;;;;;;9.73;9.13;;;;;;;6.75;69.22;92318.81;5052616;28;20212;-71
2022/03/30 02:33:23;;;;;;;9.33;8.67;;;;;;;6.74;69.28;92327.59;5051574;28;20182;-72
2022/03/30 02:35:49;;;;;;;9.97;9.47;;;;;;;6.67;69.25;92321.94;5048274;28;20185;-72
2022/03/30 02:38:15;;;;;;;10.23;9.40;;;;;;;6.61;69.57;92325.56;5051830;28;20222;-73
2022/03/30 02:40:40;;;;;;;9.10;8.73;;;;;;;6.36;70.24;92317.81;5050266;28;20210;-71
2022/03/30 02:43:06;;;;;;;10.47;9.63;;;;;;;6.45;70.02;92318.81;5051926;28;20205;-72
2022/03/30 02:45:31;;;;;;;12.40;11.33;;;;;;;6.45;70.22;92322.22;5050994;28;20232;-72
2022/03/30 02:50:41;;;;;;;10.57;10.03;;;;;;;6.40;70.75;92326.59;5050104;28;20228;-72
2022/03/30 02:53:06;;;;;;;10.70;10.20;;;;;;;6.20;70.94;92308.47;5050815;28;20198;-72
2022/03/30 02:55:32;;;;;;;10.13;9.20;;;;;;;6.09;71.57;92327.63;5049100;28;20260;-72
2022/03/30 02:57:57;;;;;;;10.90;10.30;;;;;;;6.18;71.67;92313.91;5050960;28;20178;-72
2022/03/30 03:00:23;;;;;;;11.00;10.30;;;;;;;6.18;71.90;92315.69;5049942;28;20222;-72
2022/03/30 03:02:48;;;;;;;10.57;10.07;;;;;;;6.19;71.94;92314.69;5050912;28;20190;-72
2022/03/30 03:05:14;;;;;;;9.63;9.10;;;;;;;6.19;71.44;92312.09;5051350;28;20229;-72
2022/03/30 03:07:40;;;;;;;10.70;9.90;;;;;;;6.11;71.52;92317.78;5049588;28;20190;-72
2022/03/30 03:10:06;;;;;;;10.90;10.20;;;;;;;6.11;71.76;92308.22;5049727;28;20229;-72
2022/03/30 03:12:31;;;;;;;12.00;11.10;;;;;;;6.03;72.72;92310.53;5051084;28;20182;-72
2022/03/30 03:14:57;;;;;;;11.20;10.57;;;;;;;5.97;72.24;92296.00;5050302;28;20257;-72
2022/03/30 03:17:22;;;;;;;10.40;9.53;;;;;;;5.98;72.67;92310.50;5049300;28;20185;-72
2022/03/30 03:19:48;;;;;;;9.40;8.93;;;;;;;6.00;72.58;92316.22;5049715;28;20244;-72
2022/03/30 03:22:13;;;;;;;9.63;8.93;;;;;;;5.90;72.53;92290.31;5051039;28;20194;-72
2022/03/30 03:24:38;;;;;;;10.13;9.40;;;;;;;5.93;72.73;92274.25;5049351;28;20214;-72
2022/03/30 03:27:04;;;;;;;10.47;9.97;;;;;;;5.98;72.75;92303.53;5050295;28;20213;-72
2022/03/30 03:29:30;;;;;;;10.07;9.33;;;;;;;5.93;73.38;92300.94;5050289;28;20254;-72
2022/03/30 03:31:55;;;;;;;10.13;9.50;;;;;;;5.84;73.45;92301.69;5050523;28;20178;-72
2022/03/30 03:34:21;;;;;;;8.93;8.30;;;;;;;5.77;73.47;92293.38;5049993;28;20229;-72
2022/03/30 03:36:46;;;;;;;9.73;9.20;;;;;;;5.88;73.07;92302.75;5050108;28;20575;-71
2022/03/30 03:39:12;;;;;;;10.07;9.67;;;;;;;5.95;73.36;92298.06;5047834;28;20229;-72
2022/03/30 03:41:37;;;;;;;9.53;9.00;;;;;;;5.70;73.56;92279.88;5050707;28;20229;-78
2022/03/30 03:44:03;;;;;;;14.00;12.57;;;;;;;5.83;73.08;92300.13;5048534;28;20238;-75
2022/03/30 03:46:29;;;;;;;16.83;13.30;;;;;;;5.68;73.37;92281.97;5049218;28;20201;-76
2022/03/30 03:48:55;;;;;;;19.80;12.97;;;;;;;5.76;73.65;92289.22;5049483;28;20230;-75
2022/03/30 03:51:21;;;;;;;11.53;10.07;;;;;;;5.76;73.80;92295.16;5051029;28;20225;-76
2022/03/30 03:53:46;;;;;;;13.20;11.90;;;;;;;5.64;74.57;92306.78;5049332;28;20221;-73
2022/03/30 03:56:12;;;;;;;10.23;9.63;;;;;;;5.75;74.06;92298.00;5050762;28;20217;-77
2022/03/30 03:58:37;;;;;;;11.07;10.50;;;;;;;5.82;74.26;92280.47;5049075;28;20230;-76
2022/03/30 04:01:03;;;;;;;10.00;9.57;;;;;;;5.92;73.82;92299.38;5048320;28;20222;-75
2022/03/30 04:03:28;;;;;;;10.23;9.63;;;;;;;5.87;73.58;92290.81;5049381;28;20233;-76
2022/03/30 04:05:54;;;;;;;10.87;10.07;;;;;;;5.94;73.55;92301.72;5049256;28;20216;-79
2022/03/30 04:08:20;;;;;;;9.87;9.37;;;;;;;6.00;73.30;92300.69;5049600;28;20201;-82
2022/03/30 04:10:47;;;;;;;8.97;8.67;;;;;;;6.04;73.18;92297.31;5050367;28;20328;-76
2022/03/30 04:13:12;;;;;;;10.37;9.47;;;;;;;6.07;73.50;92286.44;5049008;28;20213;-76
2022/03/30 04:15:38;;;;;;;10.53;10.03;;;;;;;6.03;73.56;92287.19;5049636;28;20194;-75
2022/03/30 04:18:04;;;;;;;11.30;10.23;;;;;;;6.07;73.09;92293.44;5049228;28;20249;-80
2022/03/30 04:20:31;;;;;;;10.50;9.90;;;;;;;5.99;72.90;92273.97;5047936;28;20234;-80
2022/03/30 04:22:56;;;;;;;10.77;10.13;;;;;;;6.07;73.16;92296.78;5049111;28;20201;-80
2022/03/30 04:25:23;;;;;;;9.40;8.80;;;;;;;6.10;72.98;92298.09;5047679;28;20297;-81
2022/03/30 04:27:50;;;;;;;10.73;10.23;;;;;;;6.12;72.29;92298.59;5046126;28;20189;-79
2022/03/30 04:30:17;;;;;;;9.77;9.27;;;;;;;6.15;72.26;92303.25;5048168;28;20225;-76
2022/03/30 04:32:43;;;;;;;9.43;9.13;;;;;;;6.23;71.92;92302.75;5048124;28;20209;-76
2022/03/30 04:35:09;;;;;;;11.10;10.20;;;;;;;6.31;73.36;92304.84;5048942;28;20225;-76
2022/03/30 04:37:34;;;;;;;9.00;8.60;;;;;;;6.40;71.59;92300.69;5048031;28;20182;-81
2022/03/30 04:39:59;;;;;;;10.30;9.80;;;;;;;6.38;71.34;92284.63;5047482;28;20234;-79
2022/03/30 04:42:25;;;;;;;11.07;10.47;;;;;;;6.53;71.09;92300.94;5048547;28;20201;-80
2022/03/30 04:44:50;;;;;;;9.63;9.23;;;;;;;6.51;70.32;92284.06;5046988;28;20253;-79
2022/03/30 04:47:16;;;;;;;9.90;9.40;;;;;;;6.71;70.38;92299.59;5048138;28;20197;-81
2022/03/30 04:49:42;;;;;;;9.30;8.90;;;;;;;6.86;69.74;92289.22;5047312;28;20230;-84
2022/03/30 04:52:08;;;;;;;9.43;8.93;;;;;;;6.92;69.63;92282.97;5045703;28;20275;-82
2022/03/30 04:54:33;;;;;;;10.37;9.60;;;;;;;7.04;69.35;92293.81;5046898;28;20230;-88
2022/03/30 04:56:59;;;;;;;10.57;9.90;;;;;;;6.99;69.51;92267.88;5049450;28;20892;-76
2022/03/30 04:59:24;;;;;;;9.40;8.63;;;;;;;7.19;69.74;92304.16;5049318;28;20228;-78
2022/03/30 05:01:50;;;;;;;10.77;10.10;;;;;;;7.26;69.38;92303.88;5048969;28;20178;-77
2022/03/30 05:04:15;;;;;;;10.60;9.67;;;;;;;7.50;68.86;92300.38;5041975;28;20261;-78
2022/03/30 05:06:40;;;;;;;10.43;9.93;;;;;;;7.59;68.79;92285.81;5048848;28;20194;-78
2022/03/30 05:09:06;;;;;;;12.90;11.57;;;;;;;7.58;68.86;92301.69;5048212;28;20222;-78
2022/03/30 05:11:31;;;;;;;11.23;10.10;;;;;;;7.57;68.34;92306.09;5049263;28;20202;-77
2022/03/30 05:13:57;;;;;;;11.43;10.67;;;;;;;7.96;67.06;92303.53;5047188;28;20221;-78
2022/03/30 05:16:23;;;;;;;9.87;9.27;;;;;;;8.21;65.35;92290.34;5049426;28;20253;-81
2022/03/30 05:18:48;;;;;;;10.33;9.83;;;;;;;8.34;65.73;92310.59;5045931;28;20249;-76
2022/03/30 05:21:14;;;;;;;10.20;9.73;;;;;;;8.13;65.42;92283.91;5048114;28;20210;-76
2022/03/30 05:23:40;;;;;;;9.17;8.77;;;;;;;8.47;64.76;92322.19;5049877;28;20229;-76
2022/03/30 05:26:05;;;;;;;10.93;10.23;;;;;;;8.40;64.55;92319.91;5046327;28;20432;-76
2022/03/30 05:28:31;;;;;;;11.77;10.90;;;;;;;8.53;64.15;92315.91;5047863;28;20226;-76
2022/03/30 05:30:56;;;;;;;12.00;11.00;;;;;;;8.65;63.98;92309.28;5049513;28;20210;-77
2022/03/30 05:33:21;;;;;;;11.03;10.33;;;;;;;8.73;63.74;92315.72;5052603;28;20186;-76
2022/03/30 05:35:50;;;;;;;12.60;11.90;;;;;;;8.89;63.05;92322.31;5052044;28;20182;-76
2022/03/30 05:38:16;;;;;;;13.27;9.90;;;;;;;8.90;62.42;92306.44;5052877;28;20198;-76
2022/03/30 05:40:42;;;;;;;11.37;10.77;;;;;;;9.06;62.92;92320.06;5052751;28;20213;-77
2022/03/30 05:43:07;;;;;;;9.43;8.97;;;;;;;9.23;61.38;92302.22;5052918;28;20223;-76
2022/03/30 05:45:33;;;;;;;11.33;10.63;;;;;;;9.30;61.23;92302.63;5050963;28;20210;-76
2022/03/30 05:47:59;;;;;;;10.77;10.17;;;;;;;9.43;61.35;92313.16;5052204;28;20205;-76
2022/03/30 05:50:25;;;;;;;10.53;9.87;;;;;;;9.17;61.82;92280.63;5050777;28;20222;-76
2022/03/30 05:52:51;;;;;;;11.40;10.60;;;;;;;9.69;60.91;92308.44;5052445;28;20220;-76
2022/03/30 05:55:17;;;;;;;10.33;9.83;;;;;;;9.91;60.17;92311.28;5052668;28;20233;-76
2022/03/30 05:57:43;;;;;;;9.37;8.77;;;;;;;9.79;61.48;92310.88;5052171;28;20186;-77
2022/03/30 06:00:10;;;;;;;10.73;10.13;;;;;;;10.11;60.23;92313.63;5051074;28;20226;-77
2022/03/30 06:02:37;;;;;;;9.70;9.00;;;;;;;10.14;59.57;92302.63;5051109;28;20193;-77
2022/03/30 06:05:03;;;;;;;9.30;8.90;;;;;;;10.18;60.15;92318.50;5051642;28;20213;-76
2022/03/30 06:07:29;;;;;;;9.73;9.23;;;;;;;10.19;60.06;92320.81;5052619;28;20190;-76
2022/03/30 06:09:55;;;;;;;8.30;8.00;;;;;;;10.27;59.70;92317.59;5052245;28;20264;-76
2022/03/30 06:12:20;;;;;;;10.30;9.70;;;;;;;10.31;58.60;92317.78;5050465;28;20938;-77
2022/03/30 06:14:46;;;;;;;11.27;10.67;;;;;;;10.22;59.02;92333.31;5049848;28;20697;-76
2022/03/30 06:17:12;;;;;;;9.70;9.20;;;;;;;10.25;59.62;92324.13;5052357;28;20196;-76
2022/03/30 06:19:39;;;;;;;10.17;9.47;;;;;;;10.43;58.75;92333.78;5051408;28;20299;-76
2022/03/30 06:22:08;;;;;;;10.57;9.87;;;;;;;10.29;58.54;92312.84;5051584;28;20195;-76
2022/03/30 06:24:38;;;;;;;11.20;10.50;;;;;;;10.46;58.30;92320.94;5052189;28;20241;-76
2022/03/30 06:27:05;;;;;;;10.83;10.00;;;;;;;10.70;58.83;92339.88;5049917;28;20198;-76
2022/03/30 06:29:32;;;;;;;11.70;10.90;;;;;;;10.77;57.52;92326.47;5052114;28;20242;-77
2022/03/30 06:31:57;;;;;;;9.90;9.23;;;;;;;10.84;57.26;92326.88;5051670;28;20190;-76
2022/03/30 06:34:23;;;;;;;9.57;9.03;;;;;;;11.13;56.47;92320.34;5051336;28;20240;-77
2022/03/30 06:36:48;;;;;;;10.60;9.93;;;;;;;11.55;54.99;92336.84;5050708;28;20198;-77
2022/03/30 06:39:14;;;;;;;9.73;9.20;;;;;;;11.26;56.39;92340.50;5050937;28;20226;-76
2022/03/30 06:41:39;;;;;;;10.00;9.43;;;;;;;11.53;55.32;92344.97;5052299;28;20249;-76
2022/03/30 06:44:05;;;;;;;9.87;9.30;;;;;;;11.52;55.58;92343.41;5047348;28;20241;-76
2022/03/30 06:46:33;;;;;;;9.53;9.13;;;;;;;11.44;55.27;92341.47;5052083;28;20202;-76
2022/03/30 06:49:01;;;;;;;11.67;10.83;;;;;;;11.74;54.34;92350.59;5049780;28;20317;-76
2022/03/30 06:51:26;;;;;;;9.50;9.10;;;;;;;11.63;55.14;92357.88;5050598;28;20193;-76
2022/03/30 06:53:52;;;;;;;10.83;10.27;;;;;;;11.86;54.31;92364.00;5050574;28;21070;-76
2022/03/30 06:56:17;;;;;;;10.10;9.60;;;;;;;11.85;54.68;92365.03;5051591;28;20273;-77
2022/03/30 06:58:43;;;;;;;10.10;9.63;;;;;;;11.86;54.13;92369.97;5051549;28;20237;-77
2022/03/30 07:01:09;;;;;;;9.97;9.37;;;;;;;12.02;53.83;92367.84;5052392;28;20230;-77
2022/03/30 07:03:34;;;;;;;11.47;10.67;;;;;;;12.13;53.70;92361.31;5051369;28;20242;-76
2022/03/30 07:06:02;;;;;;;11.17;10.17;;;;;;;12.13;53.52;92364.72;5050601;28;20950;-77
2022/03/30 07:11:12;;;;;;;8.63;8.23;;;;;;;12.25;53.09;92351.91;5049325;28;20189;-75
2022/03/30 07:13:37;;;;;;;9.80;9.07;;;;;;;12.44;52.37;92359.59;5051174;28;20234;-77
2022/03/30 07:16:03;;;;;;;9.73;9.23;;;;;;;12.59;52.14;92346.19;5051524;28;20174;-76
2022/03/30 07:18:29;;;;;;;9.60;9.00;;;;;;;12.27;51.86;92328.84;5049389;28;20253;-76
2022/03/30 07:20:54;;;;;;;9.83;9.13;;;;;;;11.46;53.78;92307.19;5051549;28;20214;-77
2022/03/30 07:23:20;;;;;;;10.23;9.53;;;;;;;12.09;53.75;92349.91;5051709;28;20178;-77
2022/03/30 07:25:46;;;;;;;10.83;10.23;;;;;;;12.75;51.71;92348.16;5049949;28;20245;-76
2022/03/30 07:28:11;;;;;;;9.43;8.80;;;;;;;12.76;51.23;92330.63;5050525;28;20193;-76
2022/03/30 07:30:37;;;;;;;11.10;10.33;;;;;;;12.90;51.54;92347.03;5051356;28;20205;-77
2022/03/30 07:33:03;;;;;;;10.87;9.97;;;;;;;12.87;50.74;92337.16;5049489;28;20225;-77
2022/03/30 07:35:32;;;;;;;10.27;9.50;;;;;;;12.80;51.37;92355.13;5049935;28;20241;-77
2022/03/30 07:37:58;;;;;;;9.60;8.90;;;;;;;12.17;52.18;92357.06;5050751;28;20208;-76
2022/03/30 07:40:25;;;;;;;9.87;9.27;;;;;;;13.00;50.46;92351.28;5049547;28;20233;-77
2022/03/30 07:42:51;;;;;;;10.27;9.67;;;;;;;13.03;49.87;92361.94;5049371;28;20202;-76
2022/03/30 07:45:18;;;;;;;9.77;9.17;;;;;;;12.81;50.71;92360.06;5050645;28;20241;-76
2022/03/30 07:47:44;;;;;;;11.73;10.70;;;;;;;12.50;51.72;92364.44;5050331;28;20222;-76
2022/03/30 07:50:11;;;;;;;10.87;10.10;;;;;;;12.25;52.83;92357.13;5049276;28;20257;-76
2022/03/30 07:52:37;;;;;;;10.73;10.13;;;;;;;12.95;51.42;92354.75;5050202;28;20221;-77
2022/03/30 07:55:05;;;;;;;10.03;9.43;;;;;;;13.19;49.82;92355.25;5049238;28;20222;-77
2022/03/30 07:57:30;;;;;;;9.43;9.00;;;;;;;12.72;50.84;92363.69;5050561;28;20269;-76
2022/03/30 07:59:58;;;;;;;11.90;11.00;;;;;;;12.88;50.38;92355.19;5050329;28;20226;-77
2022/03/30 08:02:25;;;;;;;9.43;8.93;;;;;;;13.11;49.38;92348.13;5050196;28;20190;-76
2022/03/30 08:04:51;;;;;;;9.73;9.23;;;;;;;12.92;51.38;92340.41;5048272;28;20222;-77
2022/03/30 08:07:16;;;;;;;9.47;9.07;;;;;;;13.35;48.27;92355.66;5049474;28;20211;-77
2022/03/30 08:09:43;;;;;;;10.50;9.87;;;;;;;13.41;48.41;92357.84;5047348;28;20230;-76
2022/03/30 08:12:12;;;;;;;9.43;8.90;;;;;;;13.49;47.99;92354.50;5050493;28;20194;-76
2022/03/30 08:14:38;;;;;;;9.57;9.07;;;;;;;13.55;48.12;92358.53;5049041;28;20237;-77
2022/03/30 08:17:04;;;;;;;9.87;9.20;;;;;;;13.83;47.83;92356.47;5050370;28;20184;-77
2022/03/30 08:19:30;;;;;;;9.57;8.97;;;;;;;13.76;47.91;92351.66;5047986;28;20234;-76
2022/03/30 08:24:39;;;;;;;9.53;9.03;;;;;;;13.57;48.48;92356.38;5047983;28;20260;-76
2022/03/30 08:27:05;;;;;;;9.43;9.03;;;;;;;13.52;48.90;92343.41;5049667;28;20198;-77
2022/03/30 08:29:31;;;;;;;10.03;9.33;;;;;;;14.05;47.17;92357.19;5049457;28;20954;-77
2022/03/30 08:31:56;;;;;;;9.90;9.20;;;;;;;14.08;46.50;92348.69;5050193;28;20194;-77
2022/03/30 08:34:23;;;;;;;9.43;8.97;;;;;;;14.18;46.79;92339.72;5048918;28;20222;-77
2022/03/30 08:36:49;;;;;;;10.13;9.43;;;;;;;14.27;46.66;92337.94;5048875;28;20193;-76
2022/03/30 08:39:14;;;;;;;8.83;8.53;;;;;;;14.40;45.79;92322.03;5048649;28;20230;-77
2022/03/30 08:41:45;;;;;;;9.43;8.93;;;;;;;14.88;45.43;92336.88;5049517;28;20236;-76
2022/03/30 08:44:14;;;;;;;9.20;8.80;;;;;;;14.67;45.42;92341.19;5048024;28;20252;-77
2022/03/30 08:46:41;;;;;;;10.10;9.37;;;;;;;14.96;44.03;92341.34;5049990;28;20221;-76
2022/03/30 08:49:06;;;;;;;10.20;9.27;;;;;;;14.62;44.11;92294.06;5048553;28;20237;-76
2022/03/30 08:51:36;;;;;;;10.03;9.43;;;;;;;14.79;44.82;92309.81;5049455;28;20202;-76
2022/03/30 08:54:01;;;;;;;9.57;9.10;;;;;;;14.70;44.61;92315.09;5047658;28;20231;-77
2022/03/30 08:56:28;;;;;;;9.07;8.37;;;;;;;14.76;44.55;92307.81;5050127;28;20190;-76
2022/03/30 08:59:20;;;;;;;9.73;9.30;;;;;;;14.89;44.35;92312.13;5047696;28;20244;-77
2022/03/30 09:01:46;;;;;;;8.77;8.37;;;;;;;14.85;43.97;92305.97;5040063;28;20237;-77
2022/03/30 09:04:14;;;;;;;9.03;8.53;;;;;;;14.94;44.20;92304.09;5048909;28;20230;-77
2022/03/30 09:06:54;;;;;;;8.77;8.33;;;;;;;15.24;43.51;92308.34;5048178;28;20260;-76
2022/03/30 09:09:31;;;;;;;9.33;8.80;;;;;;;15.16;43.46;92301.25;5048031;28;20245;-77
2022/03/30 09:11:59;;;;;;;8.40;8.00;;;;;;;15.34;43.31;92305.38;5049415;28;20255;-77
2022/03/30 09:14:27;;;;;;;10.07;9.50;;;;;;;15.67;42.90;92311.66;5047985;28;20619;-76
2022/03/30 09:16:56;;;;;;;9.80;9.30;;;;;;;15.67;43.13;92312.41;5048848;28;20209;-77
2022/03/30 09:19:23;;;;;;;9.73;9.10;;;;;;;16.01;41.61;92298.31;5047313;28;20290;-76
2022/03/30 09:21:54;;;;;;;10.10;9.50;;;;;;;16.09;41.64;92290.34;5048110;28;20205;-77
2022/03/30 09:24:32;;;;;;;9.60;9.00;;;;;;;16.66;40.61;92290.59;5048143;28;20271;-77
2022/03/30 09:26:59;;;;;;;8.93;8.43;;;;;;;16.80;39.06;92283.19;5048062;28;20185;-76
2022/03/30 09:29:31;;;;;;;9.67;8.77;;;;;;;16.57;37.38;92245.09;5048814;28;20236;-77
2022/03/30 09:31:56;;;;;;;8.20;7.70;;;;;;;16.28;36.57;92266.19;5049711;28;20179;-77
2022/03/30 09:34:22;;;;;;;8.90;8.37;;;;;;;16.20;38.36;92267.06;5048886;28;20260;-76
2022/03/30 09:36:52;;;;;;;9.97;9.30;;;;;;;16.02;38.97;92257.72;5048890;28;20194;-77
2022/03/30 09:39:44;;;;;;;8.23;7.73;;;;;;;16.13;41.06;92279.94;5047274;28;20238;-77
2022/03/30 09:42:11;;;;;;;9.27;8.67;;;;;;;16.75;38.96;92266.78;5045636;28;20206;-77
2022/03/30 09:45:03;;;;;;;9.77;8.90;;;;;;;17.08;39.05;92257.78;5048354;28;21113;-77
2022/03/30 09:47:37;;;;;;;9.57;8.87;;;;;;;17.15;38.17;92249.34;5045321;28;20204;-77
2022/03/30 09:50:07;;;;;;;9.33;8.83;;;;;;;16.41;40.19;92236.19;5048149;28;20225;-77
2022/03/30 09:52:33;;;;;;;9.03;8.47;;;;;;;16.77;39.17;92227.69;5047971;28;20249;-77
2022/03/30 09:55:05;;;;;;;9.33;8.90;;;;;;;17.05;37.94;92229.44;5048013;28;20222;-77
2022/03/30 09:57:37;;;;;;;9.97;9.37;;;;;;;16.74;38.09;92226.50;5048902;28;20186;-78
2022/03/30 10:00:12;;;;;;;8.97;8.40;;;;;;;16.79;39.02;92226.28;5048227;28;20226;-78
2022/03/30 10:02:43;;;;;;;9.70;8.97;;;;;;;17.39;36.16;92225.63;5049156;28;20197;-77
2022/03/30 10:05:12;;;;;;;9.47;8.77;;;;;;;17.34;36.78;92231.88;5047689;28;20226;-77
2022/03/30 10:07:38;;;;;;;9.80;9.20;;;;;;;16.84;36.66;92188.41;5046963;28;20207;-77
2022/03/30 10:10:06;;;;;;;9.70;9.10;;;;;;;17.17;36.08;92215.47;5048423;28;20230;-77
2022/03/30 10:12:32;;;;;;;9.17;8.63;;;;;;;17.36;36.17;92211.22;5047696;28;21759;-77
2022/03/30 10:14:58;;;;;;;9.47;8.83;;;;;;;17.33;36.26;92203.19;5046687;28;20273;-76
2022/03/30 10:17:27;;;;;;;8.93;8.43;;;;;;;17.11;36.48;92195.69;5048552;28;20182;-77
2022/03/30 10:19:55;;;;;;;9.30;8.73;;;;;;;17.31;34.85;92200.88;5051847;28;20825;-77
2022/03/30 10:22:45;;;;;;;10.20;9.27;;;;;;;17.19;35.24;92198.25;5051710;28;20217;-77
2022/03/30 10:25:48;;;;;;;10.80;10.00;;;;;;;17.63;34.17;92195.84;5051468;28;20237;-77
2022/03/30 10:28:16;;;;;;;8.70;8.20;;;;;;;17.51;33.88;92186.06;5051895;28;20206;-77
2022/03/30 10:30:43;;;;;;;9.47;8.77;;;;;;;17.54;33.22;92175.63;5051625;28;20216;-77
2022/03/30 10:33:10;;;;;;;8.40;8.10;;;;;;;17.68;33.20;92166.59;5052050;28;20198;-77
2022/03/30 10:35:41;;;;;;;8.03;7.63;;;;;;;17.89;32.42;92162.69;5051944;28;20209;-78
2022/03/30 10:38:07;;;;;;;8.13;7.73;;;;;;;18.06;32.64;92172.22;5050589;28;20250;-77
2022/03/30 10:40:34;;;;;;;8.83;8.43;;;;;;;18.21;31.36;92174.19;5050681;28;20234;-77
2022/03/30 10:43:06;;;;;;;8.40;7.90;;;;;;;17.99;30.58;92146.41;5051486;28;20194;-77
2022/03/30 10:45:56;;;;;;;9.03;8.43;;;;;;;18.05;31.74;92152.22;5051759;28;20229;-77
2022/03/30 10:48:27;;;;;;;8.60;8.20;;;;;;;18.04;30.68;92153.31;5040311;28;20198;-77
2022/03/30 10:51:08;;;;;;;8.23;7.73;;;;;;;18.03;30.88;92157.81;5051171;28;20182;-77
2022/03/30 10:53:34;;;;;;;9.53;8.93;;;;;;;17.67;31.97;92159.75;5050476;28;20241;-78
2022/03/30 10:56:09;;;;;;;8.30;7.90;;;;;;;18.25;31.42;92175.03;5052035;28;20250;-77
2022/03/30 10:58:59;;;;;;;8.80;8.40;;;;;;;17.87;31.90;92154.34;5051305;28;20263;-77
2022/03/30 11:01:35;;;;;;;8.73;8.27;;;;;;;17.75;31.00;92140.38;5051621;28;20233;-77
2022/03/30 11:04:10;;;;;;;9.33;8.83;;;;;;;17.93;30.63;92142.44;5050800;28;20237;-76
2022/03/30 11:06:42;;;;;;;8.20;7.80;;;;;;;17.75;30.83;92137.75;5039142;28;20206;-77
2022/03/30 11:09:32;;;;;;;8.97;8.53;;;;;;;17.27;32.48;92130.63;5050607;28;20245;-78
2022/03/30 11:12:05;;;;;;;8.10;7.63;;;;;;;17.68;30.74;92129.63;5050010;28;20198;-77
2022/03/30 11:14:34;;;;;;;8.37;8.07;;;;;;;17.93;27.39;92136.41;5050323;28;20241;-77
2022/03/30 11:17:04;;;;;;;7.73;7.43;;;;;;;18.07;29.02;92128.88;5050163;28;20194;-77
2022/03/30 11:19:49;;;;;;;8.23;7.93;;;;;;;17.80;30.18;92132.25;5050557;28;20237;-77
2022/03/30 11:22:16;;;;;;;8.70;8.20;;;;;;;18.14;28.72;92136.97;5053223;28;20198;-77
2022/03/30 11:24:46;;;;;;;8.37;7.90;;;;;;;17.83;28.10;92123.66;5051162;28;20246;-76
2022/03/30 11:27:11;;;;;;;8.60;8.03;;;;;;;18.12;27.46;92139.19;5049596;28;20641;-76
2022/03/30 11:29:57;;;;;;;7.27;6.97;;;;;;;17.22;28.30;92110.50;5050102;28;20305;-77
2022/03/30 11:32:22;;;;;;;7.70;7.40;;;;;;;17.47;27.67;92121.84;5050478;28;20197;-76
2022/03/30 11:34:56;;;;;;;8.10;7.80;;;;;;;17.56;27.75;92118.00;5049351;28;20221;-77
2022/03/30 11:37:27;;;;;;;7.87;7.50;;;;;;;17.63;27.90;92119.28;5051751;28;20186;-76
2022/03/30 11:40:11;;;;;;;8.10;7.70;;;;;;;17.75;27.54;92113.97;5050741;28;20301;-77
2022/03/30 11:42:38;;;;;;;7.97;7.67;;;;;;;17.84;27.50;92112.00;5050414;28;20198;-77
2022/03/30 11:45:15;;;;;;;7.83;7.50;;;;;;;17.55;29.09;92105.91;5049739;28;20256;-77